Time;durP1;ratioP1;P1;durP2;ratioP2;P2;SDS_P1;SDS_P2;PMS_P1;PMS_P2;Temp;Humidity;BMP_temperature;BMP_pressure;BME280_temperature;BME280_humidity;BME280_pressure;Samples;Min_cycle;Max_cycle;Signal;HPM_P1;HPM_P2
2021/10/18 00:02:04;;;;;;;13.52;8.82;;;;;;;8.69;100.00;101476.00;5042796;28;20094;-85
2021/10/18 00:04:31;;;;;;;15.95;10.50;;;;;;;8.70;100.00;101475.13;5047836;28;20037;-84
2021/10/18 00:06:57;;;;;;;15.07;9.68;;;;;;;8.74;100.00;101481.25;5016578;28;20041;-83
2021/10/18 00:09:24;;;;;;;15.52;9.93;;;;;;;8.69;100.00;101477.78;5031186;28;20462;-84
2021/10/18 00:11:51;;;;;;;15.23;10.15;;;;;;;8.71;100.00;101476.00;5013698;28;20050;-84
2021/10/18 00:14:17;;;;;;;13.63;9.65;;;;;;;8.69;100.00;101476.00;5029430;28;20071;-84
2021/10/18 00:16:45;;;;;;;15.95;10.75;;;;;;;8.70;100.00;101469.84;5033699;28;20037;-83
2021/10/18 00:19:12;;;;;;;16.50;11.05;;;;;;;8.72;100.00;101477.75;5028107;28;20107;-84
2021/10/18 00:21:38;;;;;;;14.00;9.98;;;;;;;8.73;100.00;101483.03;4997039;28;20115;-84
2021/10/18 00:24:05;;;;;;;19.83;10.50;;;;;;;8.72;100.00;101480.41;5047465;28;20450;-83
2021/10/18 00:26:32;;;;;;;14.93;9.77;;;;;;;8.69;100.00;101490.94;5045791;28;20094;-84
2021/10/18 00:28:59;;;;;;;18.90;11.35;;;;;;;8.61;100.00;101479.53;5007270;28;20048;-84
2021/10/18 00:31:26;;;;;;;15.50;10.38;;;;;;;8.64;100.00;101477.75;5044329;28;20045;-84
2021/10/18 00:33:52;;;;;;;14.32;9.85;;;;;;;8.64;100.00;101467.22;5044241;28;20045;-84
2021/10/18 00:36:19;;;;;;;14.98;10.18;;;;;;;8.65;100.00;101470.72;5046105;28;20050;-84
2021/10/18 00:38:46;;;;;;;15.35;10.57;;;;;;;8.70;100.00;101474.25;5047637;28;20037;-83
2021/10/18 00:41:12;;;;;;;13.93;9.00;;;;;;;8.67;100.00;101485.69;5016475;28;20044;-84
2021/10/18 00:43:43;;;;;;;14.32;9.93;;;;;;;8.68;100.00;101483.91;5047934;28;20079;-84
2021/10/18 00:46:10;;;;;;;17.55;10.85;;;;;;;8.68;100.00;101489.19;5033170;28;20040;-83
2021/10/18 00:48:37;;;;;;;25.92;11.85;;;;;;;8.70;100.00;101487.44;5014769;28;21263;-84
2021/10/18 00:51:04;;;;;;;17.75;11.27;;;;;;;8.73;100.00;101484.78;5036853;28;20041;-83
2021/10/18 00:53:30;;;;;;;20.23;11.88;;;;;;;8.69;100.00;101493.56;5034768;28;20416;-84
2021/10/18 00:55:57;;;;;;;13.38;9.40;;;;;;;8.67;100.00;101482.16;5037132;28;20056;-84
2021/10/18 00:58:25;;;;;;;16.38;9.98;;;;;;;8.69;100.00;101488.31;5035163;28;20034;-84
2021/10/18 01:00:52;;;;;;;14.07;10.02;;;;;;;8.68;100.00;101481.28;5016546;28;20133;-84
2021/10/18 01:03:20;;;;;;;19.02;11.65;;;;;;;8.70;100.00;101479.53;5029106;28;20041;-84
2021/10/18 01:05:47;;;;;;;16.98;11.00;;;;;;;8.69;100.00;101483.91;5036923;28;20037;-83
2021/10/18 01:08:14;;;;;;;16.85;10.82;;;;;;;8.68;100.00;101484.78;5052246;28;20041;-83
2021/10/18 01:10:41;;;;;;;13.73;10.18;;;;;;;8.68;100.00;101483.91;5056527;28;20132;-84
2021/10/18 01:13:08;;;;;;;15.38;10.35;;;;;;;8.68;100.00;101483.91;5037009;28;20056;-85
2021/10/18 01:15:34;;;;;;;14.27;9.77;;;;;;;8.69;100.00;101488.31;5014554;28;20045;-83
2021/10/18 01:18:01;;;;;;;19.83;11.02;;;;;;;8.68;100.00;101495.34;5035005;28;20045;-83
2021/10/18 01:20:39;;;;;;;19.08;12.38;;;;;;;8.69;100.00;101491.81;5050808;28;20047;-83
2021/10/18 01:23:09;;;;;;;15.00;9.85;;;;;;;8.67;100.00;101493.59;5035501;28;20049;-83
2021/10/18 01:25:36;;;;;;;18.92;11.43;;;;;;;8.70;100.00;101488.31;5052269;28;20710;-83
2021/10/18 01:28:04;;;;;;;18.40;10.18;;;;;;;8.68;100.00;101482.16;5034146;28;20075;-84
2021/10/18 01:30:31;;;;;;;18.50;10.93;;;;;;;8.66;100.00;101481.28;5040276;28;20041;-84
2021/10/18 01:32:57;;;;;;;19.88;11.85;;;;;;;8.69;100.00;101477.78;5036481;28;20057;-83
2021/10/18 01:35:24;;;;;;;19.10;11.65;;;;;;;8.68;100.00;101491.81;5017630;28;20462;-83
2021/10/18 01:37:52;;;;;;;18.38;11.95;;;;;;;8.76;100.00;101489.19;5035805;28;20045;-83
2021/10/18 01:40:22;;;;;;;17.50;11.10;;;;;;;8.65;100.00;101495.31;5034131;28;20049;-83
2021/10/18 01:42:49;;;;;;;20.90;11.95;;;;;;;8.63;100.00;101489.16;5036009;28;20120;-83
2021/10/18 01:45:17;;;;;;;19.13;12.63;;;;;;;8.68;100.00;101497.09;5035216;28;20045;-83
2021/10/18 01:47:44;;;;;;;14.60;10.07;;;;;;;8.65;100.00;101492.69;5036317;28;20104;-80
2021/10/18 01:50:16;;;;;;;16.90;10.93;;;;;;;8.66;100.00;101483.00;5024673;28;20037;-81
2021/10/18 01:52:44;;;;;;;21.75;12.48;;;;;;;8.64;100.00;101485.66;5057568;28;20041;-81
2021/10/18 01:55:11;;;;;;;18.50;11.55;;;;;;;8.65;100.00;101487.41;5035732;28;20442;-82
2021/10/18 01:57:38;;;;;;;19.40;11.95;;;;;;;8.69;100.00;101490.94;5037917;28;20041;-83
2021/10/18 02:00:07;;;;;;;23.73;12.93;;;;;;;8.69;100.00;101488.31;5029542;28;20508;-81
2021/10/18 02:02:33;;;;;;;18.70;11.57;;;;;;;8.68;100.00;101489.19;5040564;28;20539;-80
2021/10/18 02:08:03;;;;;;;18.40;11.02;;;;;;;8.65;100.00;101490.03;5386370;23;20066;-84
2021/10/18 02:10:30;;;;;;;17.48;11.52;;;;;;;8.66;100.00;101489.19;4900393;29;20047;-83
2021/10/18 02:12:57;;;;;;;17.75;11.43;;;;;;;8.66;100.00;101491.81;4904596;29;20551;-84
2021/10/18 02:15:24;;;;;;;18.65;12.60;;;;;;;8.68;100.00;101492.69;4877102;29;20049;-84
2021/10/18 02:17:50;;;;;;;21.38;13.18;;;;;;;8.73;100.00;101482.16;4892157;29;20071;-84
2021/10/18 02:20:17;;;;;;;22.65;13.48;;;;;;;8.65;100.00;101484.78;4896935;29;20548;-84
2021/10/18 02:22:44;;;;;;;21.52;13.35;;;;;;;8.70;100.00;101476.88;4899308;29;20040;-84
2021/10/18 02:25:12;;;;;;;25.35;14.40;;;;;;;8.73;100.00;101480.38;4878710;29;20057;-84
2021/10/18 02:27:39;;;;;;;22.00;13.02;;;;;;;8.69;100.00;101475.13;4880263;29;20056;-84
2021/10/18 02:30:07;;;;;;;21.98;12.55;;;;;;;8.68;100.00;101483.91;4894589;29;20119;-84
2021/10/18 02:32:34;;;;;;;21.17;14.20;;;;;;;8.66;100.00;101483.94;4865000;29;20052;-83
2021/10/18 02:35:00;;;;;;;22.50;13.43;;;;;;;8.62;100.00;101483.91;4863685;29;20137;-84
2021/10/18 02:37:27;;;;;;;19.90;12.88;;;;;;;8.63;100.00;101480.38;4863842;29;20045;-84
2021/10/18 02:39:54;;;;;;;21.73;12.52;;;;;;;8.64;100.00;101485.66;4864514;29;20045;-84
2021/10/18 02:42:20;;;;;;;25.80;14.35;;;;;;;8.67;100.00;101485.69;4863621;29;20041;-84
2021/10/18 02:44:47;;;;;;;26.17;14.45;;;;;;;8.68;100.00;101491.81;4894606;29;20040;-84
2021/10/18 02:47:14;;;;;;;22.05;14.93;;;;;;;8.63;100.00;101493.56;4881534;29;20541;-84
2021/10/18 02:49:40;;;;;;;23.38;14.32;;;;;;;8.60;100.00;101497.09;4873544;29;20092;-84
2021/10/18 02:52:07;;;;;;;21.77;13.77;;;;;;;8.63;100.00;101499.72;4884725;29;20843;-83
2021/10/18 02:54:35;;;;;;;20.98;12.60;;;;;;;8.60;100.00;101489.19;4884137;29;20542;-84
2021/10/18 02:57:02;;;;;;;24.70;15.02;;;;;;;8.59;100.00;101494.44;4883621;29;20100;-83
2021/10/18 02:59:29;;;;;;;22.05;14.60;;;;;;;8.59;100.00;101487.44;4889009;29;20111;-83
2021/10/18 03:01:56;;;;;;;26.55;14.93;;;;;;;8.63;100.00;101493.56;4883957;29;20460;-84
2021/10/18 03:04:23;;;;;;;20.20;12.63;;;;;;;8.58;100.00;101488.31;4887535;29;20072;-84
2021/10/18 03:06:49;;;;;;;22.30;13.70;;;;;;;8.60;100.00;101490.94;4879024;29;20044;-84
2021/10/18 03:09:16;;;;;;;26.55;15.45;;;;;;;8.64;100.00;101488.28;4893151;29;20044;-84
2021/10/18 03:11:42;;;;;;;20.48;13.50;;;;;;;8.61;100.00;101495.31;4864578;29;20044;-84
2021/10/18 03:14:09;;;;;;;20.90;13.27;;;;;;;8.64;100.00;101492.69;4869921;29;20116;-85
2021/10/18 03:16:37;;;;;;;24.42;15.13;;;;;;;8.65;100.00;101497.06;4864500;29;20044;-82
2021/10/18 03:19:04;;;;;;;23.02;14.10;;;;;;;8.66;100.00;101498.81;4882119;29;20271;-84
2021/10/18 03:21:30;;;;;;;27.05;14.23;;;;;;;8.63;100.00;101496.19;4895589;29;20055;-84
2021/10/18 03:23:57;;;;;;;27.95;14.35;;;;;;;8.61;100.00;101496.19;4890771;29;20048;-83
2021/10/18 03:26:23;;;;;;;20.77;13.50;;;;;;;8.63;100.00;101501.47;4895895;29;20488;-82
2021/10/18 03:28:50;;;;;;;30.83;15.85;;;;;;;8.55;100.00;101504.09;4862417;29;20045;-83
2021/10/18 03:31:17;;;;;;;22.35;13.38;;;;;;;8.57;100.00;101509.34;4877150;29;20113;-83
2021/10/18 03:33:43;;;;;;;20.77;13.57;;;;;;;8.57;100.00;101506.72;4905119;29;20055;-83
2021/10/18 03:36:10;;;;;;;22.88;14.50;;;;;;;8.59;100.00;101503.22;4879536;29;20638;-83
2021/10/18 03:38:37;;;;;;;21.05;14.30;;;;;;;8.58;100.00;101504.09;4862479;29;20045;-83
2021/10/18 03:41:03;;;;;;;23.63;14.52;;;;;;;8.60;100.00;101509.38;4878981;29;20056;-82
2021/10/18 03:43:30;;;;;;;25.30;14.98;;;;;;;8.60;100.00;101504.09;4871537;29;20051;-83
2021/10/18 03:45:57;;;;;;;28.52;15.75;;;;;;;8.60;100.00;101507.63;4881526;29;20055;-83
2021/10/18 03:48:24;;;;;;;21.63;13.00;;;;;;;8.59;100.00;101503.22;4885793;29;20262;-83
2021/10/18 03:50:50;;;;;;;23.15;14.05;;;;;;;8.59;100.00;101505.88;4878786;29;20037;-83
2021/10/18 03:53:17;;;;;;;20.65;14.07;;;;;;;8.59;100.00;101505.88;4876836;29;20040;-82
2021/10/18 03:55:44;;;;;;;23.02;13.90;;;;;;;8.59;100.00;101502.34;4897050;29;20688;-83
2021/10/18 03:58:11;;;;;;;20.83;14.18;;;;;;;8.61;100.00;101505.84;4893587;29;20136;-83
2021/10/18 04:00:38;;;;;;;24.48;15.57;;;;;;;8.61;100.00;101514.63;4889143;29;20040;-83
2021/10/18 04:03:05;;;;;;;20.58;13.95;;;;;;;8.59;100.00;101505.88;4879239;29;20048;-84
2021/10/18 04:05:31;;;;;;;24.20;14.75;;;;;;;8.58;100.00;101498.84;4877457;29;20096;-83
2021/10/18 04:07:58;;;;;;;23.10;15.32;;;;;;;8.59;100.00;101494.44;4893666;29;20055;-83
2021/10/18 04:10:25;;;;;;;22.60;13.90;;;;;;;8.57;100.00;101499.69;4875353;29;20052;-83
2021/10/18 04:12:52;;;;;;;24.38;14.70;;;;;;;8.58;100.00;101495.34;4894166;29;20048;-83
2021/10/18 04:15:19;;;;;;;25.15;15.77;;;;;;;8.58;100.00;101498.84;4881168;29;20040;-83
2021/10/18 04:17:46;;;;;;;23.42;14.00;;;;;;;8.56;100.00;101499.69;4894381;29;20048;-82
2021/10/18 04:20:13;;;;;;;22.67;14.98;;;;;;;8.55;100.00;101501.44;4861801;29;20044;-83
2021/10/18 04:22:40;;;;;;;26.27;15.93;;;;;;;8.55;100.00;101505.84;4864291;29;20052;-84
2021/10/18 04:25:06;;;;;;;23.67;14.48;;;;;;;8.52;100.00;101503.22;4862587;29;20068;-84
2021/10/18 04:27:33;;;;;;;21.92;14.15;;;;;;;8.52;100.00;101506.72;4898712;29;20067;-83
2021/10/18 04:30:00;;;;;;;21.23;14.48;;;;;;;8.53;100.00;101505.84;4863529;29;20056;-83
2021/10/18 04:32:26;;;;;;;22.05;13.55;;;;;;;8.53;100.00;101510.25;4883047;29;20056;-83
2021/10/18 04:34:53;;;;;;;27.73;16.88;;;;;;;8.53;100.00;101519.00;4866869;29;20045;-83
2021/10/18 04:37:20;;;;;;;23.42;14.45;;;;;;;8.52;100.00;101519.91;4882281;29;20044;-83
2021/10/18 04:39:46;;;;;;;22.98;14.25;;;;;;;8.52;100.00;101524.28;4874510;29;20037;-83
2021/10/18 04:42:13;;;;;;;25.90;16.65;;;;;;;8.54;100.00;101519.91;4883549;29;20504;-83
2021/10/18 04:44:39;;;;;;;24.85;14.30;;;;;;;8.50;100.00;101526.03;4884663;29;20500;-83
2021/10/18 04:47:06;;;;;;;24.15;16.13;;;;;;;8.53;100.00;101520.78;4869694;29;20547;-83
2021/10/18 04:49:33;;;;;;;27.58;16.88;;;;;;;8.46;100.00;101519.88;4899591;29;20415;-83
2021/10/18 04:51:59;;;;;;;24.55;15.77;;;;;;;8.50;100.00;101532.19;4886007;29;20163;-83
2021/10/18 04:54:26;;;;;;;20.20;13.10;;;;;;;8.44;100.00;101527.78;4895515;29;20056;-83
2021/10/18 04:56:53;;;;;;;21.85;14.32;;;;;;;8.42;100.00;101537.44;4889388;29;20048;-83
2021/10/18 04:59:20;;;;;;;21.92;13.60;;;;;;;8.42;100.00;101539.19;4865750;29;20077;-83
2021/10/18 05:01:46;;;;;;;21.55;13.20;;;;;;;8.42;100.00;101532.16;4882445;29;20045;-84
2021/10/18 05:04:13;;;;;;;16.73;12.68;;;;;;;8.40;100.00;101541.78;4886919;29;20460;-85
2021/10/18 05:06:40;;;;;;;24.80;13.90;;;;;;;8.36;100.00;101534.78;4889667;29;20036;-84
2021/10/18 05:09:07;;;;;;;20.58;12.73;;;;;;;8.43;100.00;101547.09;4889032;29;20036;-84
2021/10/18 05:11:35;;;;;;;21.08;14.07;;;;;;;8.41;100.00;101540.06;4882334;29;20095;-83
2021/10/18 05:14:02;;;;;;;24.65;13.15;;;;;;;8.46;100.00;101539.19;4873717;29;20076;-84
2021/10/18 05:16:29;;;;;;;19.02;12.40;;;;;;;8.40;100.00;101547.06;4881929;29;20057;-85
2021/10/18 05:18:55;;;;;;;22.17;13.93;;;;;;;8.42;100.00;101547.09;4883405;29;20048;-83
2021/10/18 05:21:22;;;;;;;19.80;11.80;;;;;;;8.40;100.00;101546.19;4897774;29;20050;-83
2021/10/18 05:23:49;;;;;;;23.30;13.15;;;;;;;8.45;100.00;101539.19;4880835;29;20048;-83
2021/10/18 05:26:15;;;;;;;19.42;14.30;;;;;;;8.43;100.00;101540.94;4881233;29;20052;-84
2021/10/18 05:28:42;;;;;;;21.42;13.02;;;;;;;8.45;100.00;101540.06;4877324;29;20060;-83
2021/10/18 05:31:09;;;;;;;21.77;13.80;;;;;;;8.45;100.00;101533.91;4908794;29;20044;-83
2021/10/18 05:33:35;;;;;;;21.88;12.70;;;;;;;8.50;100.00;101541.84;4878167;29;20848;-83
2021/10/18 05:36:02;;;;;;;18.33;10.95;;;;;;;8.45;100.00;101545.34;4865845;29;20096;-83
2021/10/18 05:38:29;;;;;;;21.80;13.02;;;;;;;8.46;100.00;101543.56;4879690;29;20052;-84
2021/10/18 05:40:55;;;;;;;17.98;11.57;;;;;;;8.46;100.00;101540.94;4898244;29;20058;-83
2021/10/18 05:43:22;;;;;;;18.27;12.35;;;;;;;8.45;100.00;101540.06;4866199;29;20096;-84
2021/10/18 05:45:49;;;;;;;20.85;13.18;;;;;;;8.52;100.00;101548.88;4884266;29;20131;-84
2021/10/18 05:48:17;;;;;;;18.83;12.65;;;;;;;8.50;100.00;101552.38;4879060;29;20479;-83
2021/10/18 05:50:45;;;;;;;17.67;11.35;;;;;;;8.49;100.00;101553.22;4862585;29;20491;-83
2021/10/18 05:53:12;;;;;;;15.52;10.60;;;;;;;8.50;100.00;101557.66;4901824;29;20048;-83
2021/10/18 05:55:40;;;;;;;18.42;11.98;;;;;;;8.52;100.00;101556.75;4864766;29;20048;-83
2021/10/18 05:58:10;;;;;;;15.85;10.55;;;;;;;8.51;100.00;101562.03;4901084;29;20115;-83
2021/10/18 06:00:40;;;;;;;18.98;12.70;;;;;;;8.52;100.00;101555.88;4915353;29;20456;-83
2021/10/18 06:03:07;;;;;;;18.15;12.45;;;;;;;8.54;100.00;101559.41;4903746;29;20154;-83
2021/10/18 06:05:43;;;;;;;15.70;9.40;;;;;;;8.54;100.00;101562.91;4861824;29;20408;-83
2021/10/18 06:08:11;;;;;;;14.77;10.68;;;;;;;8.51;100.00;101564.66;4871404;29;20045;-82
2021/10/18 06:10:38;;;;;;;17.73;12.13;;;;;;;8.51;100.00;101565.53;4874708;29;20052;-83
2021/10/18 06:13:05;;;;;;;16.42;10.77;;;;;;;8.50;100.00;101569.06;4880546;29;20716;-82
2021/10/18 06:15:32;;;;;;;14.10;10.35;;;;;;;8.51;100.00;101577.84;4864215;29;20048;-82
2021/10/18 06:18:12;;;;;;;17.17;11.07;;;;;;;8.51;100.00;101577.84;4896348;29;20531;-82
2021/10/18 06:20:49;;;;;;;15.20;10.13;;;;;;;8.51;100.00;101586.63;4883394;29;20040;-82
2021/10/18 06:23:16;;;;;;;14.52;9.65;;;;;;;8.52;100.00;101580.47;4893897;29;20427;-83
2021/10/18 06:25:43;;;;;;;13.93;10.05;;;;;;;8.53;100.00;101595.38;4882197;29;20079;-83
2021/10/18 06:28:11;;;;;;;14.85;10.40;;;;;;;8.56;100.00;101600.66;4904583;29;20059;-82
2021/10/18 06:30:37;;;;;;;14.10;10.95;;;;;;;8.58;100.00;101591.03;4879371;29;20069;-82
2021/10/18 06:33:04;;;;;;;11.70;8.55;;;;;;;8.59;100.00;101599.81;4880533;29;20110;-83
2021/10/18 06:35:32;;;;;;;14.48;9.48;;;;;;;8.60;100.00;101591.91;4869303;29;20048;-86
2021/10/18 06:37:59;;;;;;;13.70;10.02;;;;;;;8.64;100.00;101598.03;4869751;29;20052;-84
2021/10/18 06:40:26;;;;;;;27.35;19.20;;;;;;;8.68;100.00;101605.09;4893665;29;20678;-85
2021/10/18 06:42:53;;;;;;;21.35;14.07;;;;;;;8.70;100.00;101598.94;4872628;29;20048;-84
2021/10/18 06:45:20;;;;;;;15.00;10.15;;;;;;;8.74;100.00;101602.44;4876386;29;20703;-85
2021/10/18 06:47:47;;;;;;;17.08;12.48;;;;;;;8.82;100.00;101613.00;4903379;29;20044;-86
2021/10/18 06:50:14;;;;;;;14.80;10.48;;;;;;;8.81;100.00;101608.63;4867288;29;20045;-84
2021/10/18 06:52:42;;;;;;;13.80;9.32;;;;;;;8.82;100.00;101615.66;4878588;29;20101;-83
2021/10/18 06:55:11;;;;;;;13.68;9.35;;;;;;;8.85;100.00;101613.03;4894124;29;20385;-84
2021/10/18 06:57:38;;;;;;;13.77;8.38;;;;;;;8.88;100.00;101620.94;4895323;29;20040;-84
2021/10/18 07:00:06;;;;;;;12.93;8.10;;;;;;;8.91;100.00;101618.28;4878669;29;20059;-84
2021/10/18 07:02:32;;;;;;;10.98;8.50;;;;;;;8.94;100.00;101613.06;4879551;29;20037;-84
2021/10/18 07:05:00;;;;;;;8.77;7.55;;;;;;;8.97;100.00;101616.56;4878767;29;20132;-84
2021/10/18 07:07:27;;;;;;;10.63;8.50;;;;;;;9.02;100.00;101630.63;4879652;29;20056;-84
2021/10/18 07:10:00;;;;;;;14.15;8.65;;;;;;;9.03;100.00;101621.84;4863073;29;20092;-84
2021/10/18 07:12:32;;;;;;;10.82;8.15;;;;;;;9.06;100.00;101620.97;4865817;29;20064;-84
2021/10/18 07:14:59;;;;;;;10.15;7.63;;;;;;;9.08;100.00;101626.22;4862551;29;20052;-84
2021/10/18 07:17:27;;;;;;;11.75;7.80;;;;;;;9.08;100.00;101626.22;4895614;29;20052;-84
2021/10/18 07:19:55;;;;;;;11.95;7.43;;;;;;;9.11;100.00;101628.88;4863963;29;20055;-85
2021/10/18 07:22:26;;;;;;;11.35;7.57;;;;;;;9.17;100.00;101635.06;4868393;29;20048;-84
2021/10/18 07:24:53;;;;;;;13.95;8.75;;;;;;;9.17;100.00;101635.06;4878979;29;20055;-85
2021/10/18 07:27:23;;;;;;;10.80;8.10;;;;;;;9.23;100.00;101640.31;4863284;29;20077;-87
2021/10/18 07:29:50;;;;;;;11.70;7.68;;;;;;;9.25;100.00;101635.06;4863358;29;20072;-85
2021/10/18 07:32:17;;;;;;;13.18;8.23;;;;;;;9.29;100.00;101632.41;4896758;29;20048;-84
2021/10/18 07:34:44;;;;;;;12.55;7.95;;;;;;;9.31;100.00;101635.91;4910467;29;20048;-85
2021/10/18 07:37:11;;;;;;;10.45;7.50;;;;;;;9.30;100.00;101635.91;4893904;29;20049;-86
2021/10/18 07:39:38;;;;;;;14.80;8.13;;;;;;;9.27;100.00;101635.94;4882771;29;20052;-84
2021/10/18 07:42:07;;;;;;;12.00;7.50;;;;;;;9.29;100.00;101645.59;4891281;29;20049;-85
2021/10/18 07:44:33;;;;;;;13.45;8.63;;;;;;;9.34;100.00;101644.72;4884996;29;20044;-84
2021/10/18 07:47:01;;;;;;;10.82;7.93;;;;;;;9.42;100.00;101654.41;4883769;29;20052;-84
2021/10/18 07:49:30;;;;;;;11.80;7.80;;;;;;;9.44;100.00;101646.47;4897877;29;20059;-84
2021/10/18 07:51:59;;;;;;;11.95;8.23;;;;;;;9.59;100.00;101652.63;4861721;29;20061;-86
2021/10/18 07:54:29;;;;;;;12.13;8.18;;;;;;;9.66;100.00;101652.59;4865390;29;20045;-84
2021/10/18 07:56:56;;;;;;;9.25;7.80;;;;;;;9.67;100.00;101643.81;4879343;29;20045;-85
2021/10/18 07:59:23;;;;;;;8.57;7.00;;;;;;;9.71;100.00;101640.31;4887054;29;20050;-85
2021/10/18 08:01:49;;;;;;;10.52;7.05;;;;;;;9.77;100.00;101638.53;4878928;29;20096;-85
2021/10/18 08:04:16;;;;;;;10.32;7.63;;;;;;;9.87;100.00;101640.28;4900169;29;20041;-85
2021/10/18 08:06:43;;;;;;;9.70;6.70;;;;;;;9.95;100.00;101649.94;4887089;29;20044;-85
2021/10/18 08:09:10;;;;;;;11.05;7.25;;;;;;;10.02;100.00;101643.78;4894495;29;20044;-83
2021/10/18 08:11:37;;;;;;;10.45;6.53;;;;;;;10.08;100.00;101646.38;4878393;29;20044;-86
2021/10/18 08:14:04;;;;;;;9.88;7.05;;;;;;;10.08;100.00;101644.63;4902741;29;20503;-84
2021/10/18 08:16:30;;;;;;;9.15;6.88;;;;;;;10.17;100.00;101643.72;4906837;29;20052;-84
2021/10/18 08:18:57;;;;;;;10.57;6.78;;;;;;;10.26;100.00;101645.50;4870866;29;20548;-84
2021/10/18 08:21:24;;;;;;;11.02;6.43;;;;;;;10.14;100.00;101643.72;4888692;29;20043;-84
2021/10/18 08:23:51;;;;;;;9.50;6.53;;;;;;;10.37;100.00;101646.34;4983041;23;20097;-79
2021/10/18 08:26:18;;;;;;;14.00;6.28;;;;;;;10.38;100.00;101645.44;4899811;29;20048;-80
2021/10/18 08:28:44;;;;;;;8.85;6.20;;;;;;;10.39;100.00;101641.91;4878402;29;20075;-80
2021/10/18 08:31:13;;;;;;;9.82;6.43;;;;;;;10.41;100.00;101635.72;4907215;29;20040;-80
2021/10/18 08:33:41;;;;;;;10.88;6.80;;;;;;;10.46;100.00;101637.50;4875283;29;20048;-79
2021/10/18 08:36:08;;;;;;;7.05;5.50;;;;;;;10.40;100.00;101636.63;4890557;29;20535;-79
2021/10/18 08:44:16;;;;;;;10.35;6.72;;;;;;;10.21;100.00;101632.28;4904125;29;20060;-79
2021/10/18 08:46:48;;;;;;;10.43;6.45;;;;;;;10.24;100.00;101631.41;4886213;29;20038;-79
2021/10/18 08:49:17;;;;;;;8.60;6.90;;;;;;;10.35;100.00;101641.06;4883181;29;20108;-79
2021/10/18 08:51:44;;;;;;;9.13;6.65;;;;;;;10.40;100.00;101636.63;4889419;29;20524;-79
2021/10/18 08:54:10;;;;;;;8.68;5.70;;;;;;;10.56;100.00;101640.06;4877377;29;20060;-79
2021/10/18 08:56:53;;;;;;;9.18;6.35;;;;;;;10.68;100.00;101650.59;4879372;29;20051;-79
2021/10/18 08:59:21;;;;;;;7.63;5.88;;;;;;;10.80;100.00;101639.06;4869626;29;20458;-79
2021/10/18 09:01:50;;;;;;;10.82;6.82;;;;;;;11.12;99.76;101643.28;4899549;29;20472;-79
2021/10/18 09:04:25;;;;;;;9.00;6.47;;;;;;;11.19;100.00;101645.88;4877964;29;20041;-80
2021/10/18 09:06:55;;;;;;;8.57;5.35;;;;;;;11.37;99.93;101638.69;4895574;29;20045;-80
2021/10/18 09:09:26;;;;;;;9.27;5.70;;;;;;;11.53;92.68;101646.50;4859212;29;20045;-80
2021/10/18 09:11:58;;;;;;;9.70;5.68;;;;;;;11.80;91.93;101642.72;4894432;29;20044;-79
2021/10/18 09:14:25;;;;;;;6.72;5.88;;;;;;;12.05;92.25;101643.34;4908395;29;20055;-79
2021/10/18 09:16:52;;;;;;;6.57;5.10;;;;;;;12.11;92.20;101640.66;4892748;29;20820;-79
2021/10/18 09:19:24;;;;;;;8.40;5.78;;;;;;;12.36;94.54;101643.03;4900929;29;20074;-79
2021/10/18 09:21:55;;;;;;;6.25;4.40;;;;;;;12.58;89.37;101646.25;4868107;29;20397;-80
2021/10/18 09:24:34;;;;;;;7.03;4.38;;;;;;;12.79;91.09;101651.28;4898471;29;20044;-79
2021/10/18 09:27:06;;;;;;;7.90;4.28;;;;;;;13.02;85.97;101644.75;4895417;29;20048;-79
2021/10/18 09:29:46;;;;;;;9.43;3.70;;;;;;;13.29;82.93;101640.88;4891977;29;20048;-79
2021/10/18 09:32:20;;;;;;;4.80;3.30;;;;;;;13.42;78.17;101640.63;4895815;29;20044;-80
2021/10/18 09:34:47;;;;;;;4.90;3.53;;;;;;;13.44;77.16;101637.94;4906533;29;20060;-80
2021/10/18 09:37:15;;;;;;;5.97;4.00;;;;;;;13.65;75.82;101632.28;4895224;29;20058;-80
2021/10/18 09:39:44;;;;;;;5.18;3.53;;;;;;;13.84;76.81;101638.13;4905523;29;20044;-81
2021/10/18 09:42:13;;;;;;;6.07;3.40;;;;;;;13.94;76.48;101633.50;4896397;29;20045;-80
2021/10/18 10:52:40;;;;;;;5.45;3.35;;;;;;;15.26;61.29;101626.25;4904182;29;20047;-78
2021/10/18 10:55:21;;;;;;;2.45;1.70;;;;;;;15.28;62.08;101616.44;4882250;29;20592;-78
2021/10/18 10:57:52;;;;;;;2.55;1.92;;;;;;;15.31;63.22;101616.38;4882389;29;20385;-80
2021/10/18 11:00:38;;;;;;;3.30;2.00;;;;;;;15.47;61.98;101615.97;4896610;29;20053;-80
2021/10/18 11:03:21;;;;;;;3.65;1.80;;;;;;;15.52;62.40;101621.16;4897700;29;20064;-80
2021/10/18 11:05:59;;;;;;;4.25;2.38;;;;;;;15.43;59.81;101619.59;4887461;29;20097;-83
2021/10/18 11:08:45;;;;;;;2.55;1.80;;;;;;;15.51;59.46;101622.06;4861259;29;20589;-81
2021/10/18 11:11:19;;;;;;;2.70;2.15;;;;;;;15.41;58.85;101623.22;4895368;29;20521;-80
2021/10/18 11:13:54;;;;;;;;;;;;;;;15.29;59.22;101627.03;4885224;29;20568;-81
2021/10/18 11:16:31;;;;;;;4.15;1.95;;;;;;;15.37;61.19;101625.06;4881039;29;19924;-81
2021/10/18 11:19:00;;;;;;;3.90;1.80;;;;;;;15.44;60.45;101616.00;4889575;29;20044;-81
2021/10/18 11:21:28;;;;;;;3.17;2.08;;;;;;;15.39;60.20;101617.06;4878519;29;20416;-81
2021/10/18 11:24:09;;;;;;;3.92;2.10;;;;;;;15.49;60.15;101621.25;4906245;29;20445;-82
2021/10/18 11:26:38;;;;;;;2.95;1.90;;;;;;;15.54;59.26;101615.78;4879900;29;20072;-80
2021/10/18 11:29:10;;;;;;;4.20;1.85;;;;;;;15.57;59.74;101610.38;4864791;29;20045;-80
2021/10/18 11:31:40;;;;;;;3.58;2.40;;;;;;;15.66;60.14;101613.72;4861694;29;20052;-80
2021/10/18 11:34:19;;;;;;;4.78;2.22;;;;;;;15.73;58.18;101617.09;4904809;29;20108;-82
2021/10/18 11:36:48;;;;;;;2.35;1.52;;;;;;;15.80;57.83;101617.78;4883584;29;20041;-81
2021/10/18 11:39:21;;;;;;;4.18;2.05;;;;;;;15.72;58.95;101616.22;4875497;29;20057;-79
2021/10/18 11:42:02;;;;;;;3.30;1.97;;;;;;;15.69;58.45;101615.41;4883056;29;20508;-80
2021/10/18 11:44:49;;;;;;;3.03;1.83;;;;;;;15.74;61.02;101617.06;4886020;29;20332;-79
2021/10/18 11:47:33;;;;;;;3.35;1.80;;;;;;;15.87;58.50;101606.06;4900805;29;20045;-80
2021/10/18 11:50:17;;;;;;;;;;;;;;;15.80;58.76;101601.78;4878141;29;20093;-81
2021/10/18 11:52:48;;;;;;;4.18;1.92;;;;;;;15.95;57.23;101604.91;4899594;29;19976;-80
2021/10/18 11:55:20;;;;;;;2.25;1.90;;;;;;;15.93;56.51;101604.09;4897256;29;20045;-80
2021/10/18 11:57:48;;;;;;;2.83;1.70;;;;;;;15.95;57.65;101606.72;4894374;29;20559;-80
2021/10/18 12:00:19;;;;;;;2.17;1.50;;;;;;;15.93;58.86;101603.22;4907804;29;20043;-80
2021/10/18 12:02:46;;;;;;;2.78;1.80;;;;;;;15.89;58.29;101604.22;4889683;29;20047;-81
2021/10/18 12:05:15;;;;;;;3.47;1.88;;;;;;;15.67;55.79;101601.28;4892792;29;20083;-80
2021/10/18 12:07:48;;;;;;;2.45;1.85;;;;;;;15.66;57.94;101604.84;4891345;29;20789;-80
2021/10/18 12:10:26;;;;;;;3.08;1.88;;;;;;;15.61;58.68;101596.97;4902544;29;20127;-79
2021/10/18 12:13:16;;;;;;;4.15;1.83;;;;;;;15.54;59.31;101592.69;4889835;29;20742;-80
2021/10/18 12:15:45;;;;;;;4.22;1.70;;;;;;;15.49;58.71;101599.94;4879285;29;20056;-80
2021/10/18 12:18:13;;;;;;;1.90;1.30;;;;;;;15.45;60.11;101590.25;4890174;29;20070;-80
2021/10/18 12:20:41;;;;;;;5.00;2.03;;;;;;;15.43;59.94;101589.44;4883471;29;20053;-80
2021/10/18 12:23:16;;;;;;;2.13;1.70;;;;;;;15.44;61.41;101585.84;4860566;29;20077;-79
2021/10/18 12:25:52;;;;;;;3.03;1.58;;;;;;;15.41;60.08;101588.59;4884484;29;20048;-81
2021/10/18 12:28:45;;;;;;;2.85;1.70;;;;;;;15.48;59.00;101592.84;4878019;29;20057;-81
2021/10/18 12:31:38;;;;;;;3.08;1.80;;;;;;;15.38;59.91;101588.66;4889605;29;20089;-80
2021/10/18 12:34:23;;;;;;;4.82;2.15;;;;;;;15.33;60.01;101593.25;4899160;29;20053;-80
2021/10/18 12:37:13;;;;;;;3.50;2.15;;;;;;;15.26;59.74;101596.97;4877261;29;20045;-80
2021/10/18 12:39:55;;;;;;;2.88;2.15;;;;;;;15.14;59.79;101603.47;4894891;29;20526;-79